Time;durP1;ratioP1;P1;durP2;ratioP2;P2;SDS_P1;SDS_P2;PMS_P1;PMS_P2;Temp;Humidity;BMP_temperature;BMP_pressure;BME280_temperature;BME280_humidity;BME280_pressure;Samples;Min_cycle;Max_cycle;Signal;HPM_P1;HPM_P2
2021/10/06 00:01:32;;;;;;;;;;;;;;;9.91;71.25;100697.19;5035303;28;756;-60
2021/10/06 00:04:01;;;;;;;;;;;;;;;9.84;71.05;100695.16;5034186;28;1945;-60
2021/10/06 00:06:28;;;;;;;;;;;;;;;9.77;71.30;100697.81;5034511;28;845;-61
2021/10/06 00:08:54;;;;;;;;;;;;;;;9.72;71.50;100701.69;5034232;28;865;-61
2021/10/06 00:11:21;;;;;;;;;;;;;;;9.65;71.38;100696.09;5034183;28;835;-60
2021/10/06 00:13:47;;;;;;;;;;;;;;;9.58;71.79;100698.72;5034168;28;803;-60
2021/10/06 00:16:34;;;;;;;;;;;;;;;9.55;71.94;100693.97;5034080;28;857;-61
2021/10/06 00:19:01;;;;;;;;;;;;;;;9.54;72.16;100690.44;5015914;28;1483;-60
2021/10/06 00:21:27;;;;;;;;;;;;;;;9.59;71.77;100700.34;5034271;28;810;-60
2021/10/06 00:23:54;;;;;;;;;;;;;;;9.60;71.68;100701.91;5033951;28;1938;-60
2021/10/06 00:26:21;;;;;;;;;;;;;;;9.61;71.63;100696.03;5033937;28;1222;-61
2021/10/06 00:28:48;;;;;;;;;;;;;;;9.61;71.64;100690.50;5034140;28;827;-61
2021/10/06 00:31:14;;;;;;;;;;;;;;;9.59;71.40;100687.31;5034040;28;837;-61
2021/10/06 00:33:41;;;;;;;;;;;;;;;9.58;71.46;100683.00;5034062;28;830;-61
2021/10/06 00:36:09;;;;;;;;;;;;;;;9.59;71.41;100679.06;5033946;28;862;-60
2021/10/06 00:38:38;;;;;;;;;;;;;;;9.62;71.25;100680.25;5033882;28;802;-61
2021/10/06 00:41:05;;;;;;;;;;;;;;;9.61;71.18;100681.44;5033641;28;866;-61
2021/10/06 00:44:05;;;;;;;;;;;;;;;9.59;71.25;100686.53;5033492;28;1922;-61
2021/10/06 00:46:33;;;;;;;;;;;;;;;9.62;71.01;100691.31;5033525;28;893;-60
2021/10/06 00:49:00;;;;;;;;;;;;;;;9.60;71.04;100677.91;5033495;28;886;-61
2021/10/06 00:51:26;;;;;;;;;;;;;;;9.56;71.15;100679.03;5033657;28;874;-61
2021/10/06 00:53:56;;;;;;;;;;;;;;;9.46;71.30;100663.91;5033458;28;802;-61
2021/10/06 00:56:23;;;;;;;;;;;;;;;9.43;71.69;100674.88;5033620;28;799;-60
2021/10/06 00:58:52;;;;;;;;;;;;;;;9.44;71.75;100670.97;5033284;28;834;-60
2021/10/06 01:01:19;;;;;;;;;;;;;;;9.46;71.53;100674.16;5033564;28;799;-61
2021/10/06 01:03:48;;;;;;;;;;;;;;;9.49;71.34;100674.19;5033195;28;1902;-60
2021/10/06 01:06:15;;;;;;;;;;;;;;;9.49;71.62;100671.41;5033510;28;846;-61
2021/10/06 01:08:42;;;;;;;;;;;;;;;9.53;71.40;100671.47;5015495;28;862;-61
2021/10/06 01:11:09;;;;;;;;;;;;;;;9.51;71.48;100674.59;5033318;28;799;-61
2021/10/06 01:13:37;;;;;;;;;;;;;;;9.47;71.29;100673.75;5033075;28;826;-61
2021/10/06 01:16:05;;;;;;;;;;;;;;;9.40;71.71;100663.41;5032939;28;795;-60
2021/10/06 01:18:34;;;;;;;;;;;;;;;9.42;71.90;100662.28;5032958;28;882;-60
2021/10/06 01:21:16;;;;;;;;;;;;;;;9.38;71.95;100665.75;5032909;28;827;-60
2021/10/06 01:23:45;;;;;;;;;;;;;;;9.36;71.95;100667.31;5014986;28;1898;-60
2021/10/06 01:26:18;;;;;;;;;;;;;;;9.35;71.98;100663.75;5032905;28;1451;-60
2021/10/06 01:28:46;;;;;;;;;;;;;;;9.36;71.98;100664.53;5031714;28;815;-60
2021/10/06 01:31:15;;;;;;;;;;;;;;;9.37;72.16;100671.66;5032669;28;838;-60
2021/10/06 01:33:42;;;;;;;;;;;;;;;9.39;71.93;100663.81;5032538;28;807;-60
2021/10/06 01:36:08;;;;;;;;;;;;;;;9.35;72.22;100661.00;5032627;28;858;-61
2021/10/06 01:38:35;;;;;;;;;;;;;;;9.36;71.82;100659.03;5032458;28;850;-60
2021/10/06 01:41:03;;;;;;;;;;;;;;;9.38;72.05;100656.69;5032530;28;811;-60
2021/10/06 01:43:30;;;;;;;;;;;;;;;9.35;71.91;100665.72;5032559;28;1973;-61
2021/10/06 01:45:57;;;;;;;;;;;;;;;9.31;72.19;100664.88;5032613;28;874;-60
2021/10/06 01:48:24;;;;;;;;;;;;;;;9.28;72.16;100671.13;5032398;28;843;-61
2021/10/06 01:50:51;;;;;;;;;;;;;;;9.24;72.39;100670.28;5032319;28;853;-61
2021/10/06 01:53:18;;;;;;;;;;;;;;;9.23;72.46;100665.94;5032315;28;881;-61
2021/10/06 01:55:45;;;;;;;;;;;;;;;9.16;72.72;100663.88;5032225;28;873;-61
2021/10/06 01:58:13;;;;;;;;;;;;;;;9.16;73.01;100661.91;5014530;28;1209;-60
2021/10/06 02:00:41;;;;;;;;;;;;;;;9.28;72.92;100665.59;5014440;28;803;-60
2021/10/06 02:03:08;;;;;;;;;;;;;;;9.33;72.51;100659.78;5032100;28;2016;-60
2021/10/06 02:05:37;;;;;;;;;;;;;;;9.36;72.50;100664.53;5014297;28;1327;-60
2021/10/06 02:08:05;;;;;;;;;;;;;;;9.37;72.45;100658.66;5032061;28;869;-60
2021/10/06 02:10:33;;;;;;;;;;;;;;;9.37;72.44;100655.13;5032018;28;873;-60
2021/10/06 02:13:00;;;;;;;;;;;;;;;9.39;72.41;100669.34;5031902;28;878;-60
2021/10/06 02:15:26;;;;;;;;;;;;;;;9.43;72.31;100659.16;5031932;28;842;-60
2021/10/06 02:17:52;;;;;;;;;;;;;;;9.48;72.26;100658.81;5031870;28;827;-61
2021/10/06 02:20:19;;;;;;;;;;;;;;;9.47;72.11;100667.44;5031823;28;811;-61
2021/10/06 02:22:45;;;;;;;;;;;;;;;9.42;72.36;100668.56;5031734;28;1893;-60
2021/10/06 02:25:19;;;;;;;;;;;;;;;9.35;72.41;100666.50;5013903;28;1432;-61
2021/10/06 02:27:46;;;;;;;;;;;;;;;9.32;72.58;100667.25;5032435;28;752;-61
2021/10/06 02:30:23;;;;;;;;;;;;;;;9.35;72.88;100662.97;5014082;28;847;-60
2021/10/06 02:32:49;;;;;;;;;;;;;;;9.33;72.71;100659.78;5031616;28;827;-60
2021/10/06 02:35:17;;;;;;;;;;;;;;;9.34;72.78;100666.88;5031566;28;851;-60
2021/10/06 02:37:47;;;;;;;;;;;;;;;9.34;72.66;100664.13;5031632;28;815;-60
2021/10/06 02:40:23;;;;;;;;;;;;;;;9.33;72.83;100657.03;5031230;28;783;-60
2021/10/06 02:45:52;;;;;;;;;;;;;;;9.19;73.28;100657.59;5031567;28;625;-60
2021/10/06 02:48:21;;;;;;;;;;;;;;;9.16;73.75;100659.16;5031490;28;803;-60
2021/10/06 02:50:48;;;;;;;;;;;;;;;9.13;73.58;100656.34;5031475;28;882;-60
2021/10/06 02:53:15;;;;;;;;;;;;;;;9.12;73.59;100657.50;5031380;28;861;-60
2021/10/06 02:55:42;;;;;;;;;;;;;;;9.12;74.00;100655.53;5031441;28;886;-60
2021/10/06 02:58:08;;;;;;;;;;;;;;;9.12;73.97;100658.31;5031348;28;830;-60
2021/10/06 03:00:35;;;;;;;;;;;;;;;9.15;74.12;100654.81;5031703;28;835;-60
2021/10/06 03:03:02;;;;;;;;;;;;;;;9.16;73.97;100653.63;5031167;28;1885;-60
2021/10/06 03:05:30;;;;;;;;;;;;;;;9.22;73.99;100656.88;5013580;28;1208;-61
2021/10/06 03:07:56;;;;;;;;;;;;;;;9.29;73.76;100647.91;5031291;28;866;-60
2021/10/06 03:19:52;;;;;;;;;;;;;;;9.32;73.64;100652.66;5031523;28;680;-60
2021/10/06 03:22:19;;;;;;;;;;;;;;;9.28;74.25;100652.63;5031109;28;1958;-60
2021/10/06 03:24:45;;;;;;;;;;;;;;;9.27;74.24;100650.25;5031341;28;926;-60
2021/10/06 03:39:23;;;;;;;;;;;;;;;9.35;74.01;100643.66;5031420;28;617;-60
2021/10/06 03:41:50;;;;;;;;;;;;;;;9.37;74.05;100642.09;5030975;28;831;-61
2021/10/06 03:44:17;;;;;;;;;;;;;;;9.36;74.45;100642.47;5030928;28;1906;-60
2021/10/06 03:46:43;;;;;;;;;;;;;;;9.39;74.40;100636.22;5013247;28;1196;-60
2021/10/06 03:49:10;;;;;;;;;;;;;;;9.46;74.59;100630.00;5013205;28;1197;-60
2021/10/06 03:51:37;;;;;;;;;;;;;;;9.57;74.15;100637.22;5031002;28;889;-60
2021/10/06 03:54:04;;;;;;;;;;;;;;;9.59;74.08;100623.84;5034345;28;817;-60
2021/10/06 03:56:31;;;;;;;;;;;;;;;9.64;73.78;100630.22;5034519;28;830;-60
2021/10/06 03:58:57;;;;;;;;;;;;;;;9.65;74.00;100632.59;5034630;28;803;-61
2021/10/06 04:01:41;;;;;;;;;;;;;;;9.65;73.81;100624.31;5034352;28;921;-60
2021/10/06 04:04:08;;;;;;;;;;;;;;;9.59;73.71;100617.53;5034256;28;1960;-60
2021/10/06 04:06:35;;;;;;;;;;;;;;;9.53;73.86;100614.31;5034334;28;906;-60
2021/10/06 04:09:04;;;;;;;;;;;;;;;9.43;74.44;100605.91;5034278;28;938;-60
2021/10/06 04:11:31;;;;;;;;;;;;;;;9.44;74.54;100610.25;5034142;28;854;-60
2021/10/06 04:14:00;;;;;;;;;;;;;;;9.45;74.44;100615.38;5034375;28;806;-60
2021/10/06 04:16:36;;;;;;;;;;;;;;;9.49;74.44;100618.19;5034107;28;795;-60
2021/10/06 04:19:03;;;;;;;;;;;;;;;9.49;74.36;100610.72;5034129;28;855;-60
2021/10/06 04:21:32;;;;;;;;;;;;;;;9.52;74.24;100621.00;5016223;28;1204;-60
2021/10/06 04:24:01;;;;;;;;;;;;;;;9.50;74.15;100620.59;5034178;28;1957;-61
2021/10/06 04:26:28;;;;;;;;;;;;;;;9.47;74.31;100615.81;5015940;28;1255;-60
2021/10/06 04:28:55;;;;;;;;;;;;;;;9.46;74.29;100605.94;5034140;28;846;-60
2021/10/06 04:31:22;;;;;;;;;;;;;;;9.53;74.19;100608.00;5033796;28;858;-60
2021/10/06 04:33:49;;;;;;;;;;;;;;;9.60;73.98;100610.84;5033906;28;810;-60
2021/10/06 04:36:16;;;;;;;;;;;;;;;9.66;73.48;100612.09;5033825;28;866;-61
2021/10/06 04:38:43;;;;;;;;;;;;;;;9.66;73.70;100609.34;5033700;28;827;-60
2021/10/06 04:41:14;;;;;;;;;;;;;;;9.65;73.72;100605.00;5033719;28;894;-60
2021/10/06 04:43:41;;;;;;;;;;;;;;;9.66;73.47;100601.06;5033598;28;1975;-60
2021/10/06 04:46:07;;;;;;;;;;;;;;;9.68;73.45;100606.22;5033522;28;845;-60
2021/10/06 04:48:39;;;;;;;;;;;;;;;9.75;73.49;100600.75;5033562;28;855;-60
2021/10/06 04:51:06;;;;;;;;;;;;;;;9.85;73.08;100594.56;5033489;28;889;-60
2021/10/06 04:53:31;;;;;;;;;;;;;;;9.95;72.86;100604.16;5015638;28;1254;-60
2021/10/06 04:56:00;;;;;;;;;;;;;;;10.05;72.82;100603.47;5033401;28;893;-60
2021/10/06 04:58:28;;;;;;;;;;;;;;;10.16;72.56;100600.81;5015508;28;1181;-60
2021/10/06 05:00:54;;;;;;;;;;;;;;;10.25;72.03;100589.44;5029186;28;1478;-60
2021/10/06 05:06:41;;;;;;;;;;;;;;;10.57;71.34;100598.81;5033241;28;618;-61
2021/10/06 05:09:08;;;;;;;;;;;;;;;10.80;71.11;100590.28;5033411;28;863;-60
2021/10/06 05:17:09;;;;;;;;;;;;;;;11.16;69.75;100609.88;5891453;22;1650;-61
2021/10/06 05:19:37;;;;;;;;;;;;;;;11.39;69.49;100608.78;4976461;28;867;-61
2021/10/06 05:22:03;;;;;;;;;;;;;;;11.52;68.96;100604.53;4993818;28;878;-60
2021/10/06 05:24:39;;;;;;;;;;;;;;;11.68;68.49;100615.25;4993399;28;1930;-60
2021/10/06 05:27:07;;;;;;;;;;;;;;;12.00;68.30;100614.59;4993619;28;826;-60
2021/10/06 05:29:36;;;;;;;;;;;;;;;12.20;67.46;100610.25;4993392;28;858;-60
2021/10/06 05:32:04;;;;;;;;;;;;;;;12.31;67.39;100610.28;4993281;28;874;-60
2021/10/06 05:34:31;;;;;;;;;;;;;;;12.41;67.11;100617.78;4993283;28;814;-60
2021/10/06 05:36:58;;;;;;;;;;;;;;;12.53;66.84;100610.28;4993281;28;858;-60
2021/10/06 05:39:25;;;;;;;;;;;;;;;12.71;66.36;100613.84;4975671;28;1190;-60
2021/10/06 05:41:51;;;;;;;;;;;;;;;12.90;65.60;100620.16;4975780;28;1166;-60
2021/10/06 05:44:19;;;;;;;;;;;;;;;12.92;64.96;100621.34;4993019;28;1979;-60
2021/10/06 05:46:45;;;;;;;;;;;;;;;12.93;65.10;100616.56;4993201;28;886;-60
2021/10/06 05:49:22;;;;;;;;;;;;;;;13.02;65.27;100617.75;4993304;28;834;-61
2021/10/06 05:51:49;;;;;;;;;;;;;;;13.25;64.76;100616.53;4975465;28;1237;-60
2021/10/06 05:54:14;;;;;;;;;;;;;;;13.51;63.37;100620.06;4992903;28;873;-61
2021/10/06 05:56:41;;;;;;;;;;;;;;;13.64;63.29;100613.63;4992891;28;787;-61
2021/10/06 05:59:22;;;;;;;;;;;;;;;13.65;62.81;100619.97;4992801;28;808;-61
2021/10/06 06:01:49;;;;;;;;;;;;;;;13.63;62.99;100611.25;4992756;28;882;-60
2021/10/06 06:04:17;;;;;;;;;;;;;;;13.79;62.95;100611.56;4992774;28;1973;-60
2021/10/06 06:06:44;;;;;;;;;;;;;;;13.89;62.00;100607.94;4992723;28;811;-60
2021/10/06 06:09:21;;;;;;;;;;;;;;;13.92;62.31;100609.13;4992682;28;865;-61
2021/10/06 06:11:52;;;;;;;;;;;;;;;13.94;62.46;100597.59;4992633;28;830;-60
2021/10/06 06:14:18;;;;;;;;;;;;;;;14.01;62.54;100590.00;4992643;28;901;-61
2021/10/06 06:16:45;;;;;;;;;;;;;;;14.21;62.60;100600.59;4992420;28;930;-60
2021/10/06 06:19:13;;;;;;;;;;;;;;;14.48;61.22;100606.34;5010924;28;1331;-60
2021/10/06 06:21:42;;;;;;;;;;;;;;;14.81;59.75;100604.13;5012432;28;881;-60
2021/10/06 06:24:09;;;;;;;;;;;;;;;15.22;57.93;100623.56;5012006;28;2004;-60
2021/10/06 06:27:21;;;;;;;;;;;;;;;15.56;56.48;100619.22;5012167;28;807;-61
2021/10/06 06:29:47;;;;;;;;;;;;;;;15.69;56.42;100629.38;5011888;28;1094;-61
2021/10/06 06:32:14;;;;;;;;;;;;;;;15.80;56.33;100631.28;5011946;28;922;-60
2021/10/06 06:34:41;;;;;;;;;;;;;;;16.13;55.89;100635.22;5011936;28;814;-61
2021/10/06 06:37:08;;;;;;;;;;;;;;;16.70;54.60;100641.88;5011897;28;873;-60
2021/10/06 06:39:34;;;;;;;;;;;;;;;17.61;52.02;100645.44;5011898;28;886;-60
2021/10/06 06:42:01;;;;;;;;;;;;;;;18.23;50.52;100642.13;4994263;28;1225;-60
2021/10/06 06:44:28;;;;;;;;;;;;;;;17.77;51.34;100650.28;5011757;28;1882;-60
2021/10/06 06:46:55;;;;;;;;;;;;;;;17.30;53.04;100650.44;5011689;28;843;-61
2021/10/06 06:49:22;;;;;;;;;;;;;;;17.08;53.66;100650.81;5011818;28;815;-61
2021/10/06 06:51:48;;;;;;;;;;;;;;;16.80;54.20;100648.50;5011733;28;853;-60
2021/10/06 06:54:15;;;;;;;;;;;;;;;16.33;55.29;100660.41;5011849;28;886;-60
2021/10/06 06:56:42;;;;;;;;;;;;;;;16.23;55.86;100662.13;5011752;28;838;-60
2021/10/06 06:59:09;;;;;;;;;;;;;;;16.30;55.93;100667.63;5011617;28;803;-60
2021/10/06 07:01:40;;;;;;;;;;;;;;;16.38;55.60;100668.28;5012007;28;819;-60
2021/10/06 07:04:09;;;;;;;;;;;;;;;16.50;55.16;100667.72;5011836;28;1887;-60
2021/10/06 07:06:36;;;;;;;;;;;;;;;16.43;55.53;100669.81;5011589;28;868;-60
2021/10/06 07:09:04;;;;;;;;;;;;;;;16.36;55.39;100676.28;5011748;28;791;-60
2021/10/06 07:11:31;;;;;;;;;;;;;;;16.11;55.79;100666.31;5011663;28;893;-60
2021/10/06 07:13:57;;;;;;;;;;;;;;;16.76;54.45;100662.53;5011777;28;843;-60
2021/10/06 07:16:24;;;;;;;;;;;;;;;17.97;51.53;100655.91;5011609;28;924;-61
2021/10/06 07:18:51;;;;;;;;;;;;;;;18.93;48.68;100655.63;5011071;28;1227;-60
2021/10/06 07:21:24;;;;;;;;;;;;;;;19.16;47.59;100657.44;5011468;28;870;-61
2021/10/06 07:23:59;;;;;;;;;;;;;;;17.98;50.24;100660.25;5011383;28;1914;-61
2021/10/06 07:26:28;;;;;;;;;;;;;;;17.23;52.20;100672.91;5011745;28;842;-61
2021/10/06 07:28:55;;;;;;;;;;;;;;;16.69;53.56;100671.03;5014811;28;787;-61
2021/10/06 07:31:22;;;;;;;;;;;;;;;16.70;54.32;100672.59;5015212;28;843;-60
2021/10/06 07:33:50;;;;;;;;;;;;;;;17.08;53.43;100678.75;5015160;28;846;-61
2021/10/06 07:36:17;;;;;;;;;;;;;;;17.38;52.19;100671.44;5015118;28;850;-61
2021/10/06 07:38:44;;;;;;;;;;;;;;;17.38;52.66;100670.66;5015088;28;914;-60
2021/10/06 07:41:11;;;;;;;;;;;;;;;17.78;51.64;100665.84;5014997;28;874;-61
2021/10/06 07:43:37;;;;;;;;;;;;;;;17.87;51.71;100677.25;5014904;28;1882;-61
2021/10/06 07:46:04;;;;;;;;;;;;;;;17.81;51.70;100675.38;5014829;28;855;-61
2021/10/06 07:48:31;;;;;;;;;;;;;;;17.63;51.91;100672.97;5014981;28;798;-61
2021/10/06 07:50:57;;;;;;;;;;;;;;;17.41;52.66;100678.16;5014808;28;890;-61
2021/10/06 07:53:24;;;;;;;;;;;;;;;17.66;52.09;100672.88;5014785;28;796;-61
2021/10/06 07:55:51;;;;;;;;;;;;;;;18.07;51.17;100654.06;5014764;28;1021;-60
2021/10/06 07:58:17;;;;;;;;;;;;;;;19.03;49.53;100653.78;5014916;28;795;-61
2021/10/06 08:00:45;;;;;;;;;;;;;;;19.92;47.03;100655.34;5014880;28;878;-61
2021/10/06 08:03:12;;;;;;;;;;;;;;;19.50;47.59;100655.31;5014652;28;1943;-61
2021/10/06 08:05:38;;;;;;;;;;;;;;;18.97;48.80;100649.97;5014555;28;887;-61
2021/10/06 08:08:05;;;;;;;;;;;;;;;18.54;49.45;100650.97;5014597;28;815;-61
2021/10/06 08:10:32;;;;;;;;;;;;;;;17.95;50.64;100663.94;5014931;28;803;-61
2021/10/06 08:12:59;;;;;;;;;;;;;;;17.64;51.75;100664.13;5014595;28;877;-61
2021/10/06 08:15:26;;;;;;;;;;;;;;;17.46;52.33;100660.91;5014465;28;795;-61
2021/10/06 08:17:54;;;;;;;;;;;;;;;16.89;53.71;100671.91;5014527;28;1441;-60
2021/10/06 08:20:21;;;;;;;;;;;;;;;16.42;55.05;100663.44;5014289;28;815;-60
2021/10/06 08:22:48;;;;;;;;;;;;;;;16.30;55.58;100676.00;5014266;28;1910;-60
2021/10/06 08:25:15;;;;;;;;;;;;;;;16.63;55.34;100672.72;5014223;28;845;-61
2021/10/06 08:27:41;;;;;;;;;;;;;;;16.69;54.89;100669.03;5014354;28;807;-60
2021/10/06 08:30:08;;;;;;;;;;;;;;;16.72;54.55;100661.78;5014145;28;885;-60
2021/10/06 08:32:35;;;;;;;;;;;;;;;16.94;53.98;100651.88;4996545;28;866;-60
2021/10/06 08:35:02;;;;;;;;;;;;;;;17.16;53.70;100650.72;5012819;28;1189;-61
2021/10/06 08:37:29;;;;;;;;;;;;;;;17.28;52.80;100645.28;5013958;28;819;-60
2021/10/06 08:39:55;;;;;;;;;;;;;;;17.07;52.83;100654.84;5013858;28;862;-61
2021/10/06 08:42:22;;;;;;;;;;;;;;;17.05;53.11;100650.91;5014125;28;811;-61
2021/10/06 08:44:51;;;;;;;;;;;;;;;17.13;53.36;100646.75;5014347;28;1953;-61
2021/10/06 08:47:20;;;;;;;;;;;;;;;17.40;52.32;100638.25;5013906;28;830;-60
2021/10/06 08:49:46;;;;;;;;;;;;;;;17.73;51.14;100627.19;5014100;28;831;-61
2021/10/06 08:52:13;;;;;;;;;;;;;;;17.99;50.34;100628.28;5013657;28;854;-61
2021/10/06 08:54:39;;;;;;;;;;;;;;;18.80;49.13;100625.97;4996077;28;933;-60
2021/10/06 08:57:06;;;;;;;;;;;;;;;19.33;47.24;100621.75;5013581;28;894;-60
2021/10/06 08:59:33;;;;;;;;;;;;;;;19.24;47.55;100615.22;5013509;28;878;-61
2021/10/06 09:02:20;;;;;;;;;;;;;;;18.61;48.51;100611.63;5013859;28;859;-61
2021/10/06 09:04:50;;;;;;;;;;;;;;;18.42;49.27;100624.47;5013730;28;1943;-61
2021/10/06 09:07:17;;;;;;;;;;;;;;;18.60;49.38;100624.03;5013448;28;799;-61
2021/10/06 09:09:44;;;;;;;;;;;;;;;18.81;48.92;100631.13;5013334;28;918;-61
2021/10/06 09:12:12;;;;;;;;;;;;;;;19.44;47.91;100626.25;5013386;28;889;-61
2021/10/06 09:14:45;;;;;;;;;;;;;;;20.11;45.78;100640.31;5013139;28;849;-61
2021/10/06 09:17:26;;;;;;;;;;;;;;;19.94;45.86;100641.66;5013496;28;974;-61
2021/10/06 09:19:53;;;;;;;;;;;;;;;19.54;45.63;100628.78;4993640;28;823;-61
2021/10/06 09:22:27;;;;;;;;;;;;;;;19.33;46.36;100632.97;4993550;28;823;-60
2021/10/06 09:24:55;;;;;;;;;;;;;;;18.83;47.09;100633.50;4993470;28;1974;-60
2021/10/06 09:27:24;;;;;;;;;;;;;;;18.68;48.41;100638.66;4993431;28;842;-60
2021/10/06 09:29:54;;;;;;;;;;;;;;;18.89;47.40;100631.75;4993368;28;857;-61
2021/10/06 09:32:22;;;;;;;;;;;;;;;19.17;46.69;100633.00;4993570;28;831;-61
2021/10/06 09:35:03;;;;;;;;;;;;;;;19.41;45.99;100625.13;4993351;28;839;-61
2021/10/06 09:37:30;;;;;;;;;;;;;;;19.21;46.92;100619.69;4993169;28;799;-61
2021/10/06 09:39:57;;;;;;;;;;;;;;;19.53;45.75;100610.38;4993216;28;818;-61
2021/10/06 09:42:23;;;;;;;;;;;;;;;20.11;44.12;100615.06;4993216;28;826;-61
2021/10/06 09:44:56;;;;;;;;;;;;;;;20.46;43.74;100606.75;4993223;28;1953;-61
2021/10/06 09:47:25;;;;;;;;;;;;;;;20.78;42.29;100602.09;4992987;28;1121;-61
2021/10/06 09:49:54;;;;;;;;;;;;;;;21.00;42.83;100597.28;4992225;28;858;-61
2021/10/06 09:52:31;;;;;;;;;;;;;;;21.42;41.34;100604.66;4993366;28;763;-61
2021/10/06 09:54:59;;;;;;;;;;;;;;;20.82;42.39;100604.78;4975460;28;1312;-61
2021/10/06 09:57:30;;;;;;;;;;;;;;;20.47;42.93;100601.91;4975402;28;1228;-61
2021/10/06 10:00:01;;;;;;;;;;;;;;;20.16;43.96;100594.88;4992986;28;846;-62
2021/10/06 10:02:28;;;;;;;;;;;;;;;20.96;42.71;100595.84;4975432;28;1276;-61
2021/10/06 10:04:56;;;;;;;;;;;;;;;21.93;41.15;100581.03;4992655;28;2013;-61
2021/10/06 10:07:24;;;;;;;;;;;;;;;21.70;41.09;100574.69;4992733;28;878;-62
2021/10/06 10:09:51;;;;;;;;;;;;;;;21.41;42.16;100575.75;4992685;28;871;-62
2021/10/06 10:12:19;;;;;;;;;;;;;;;21.77;41.24;100568.00;4992605;28;838;-61
2021/10/06 10:14:46;;;;;;;;;;;;;;;22.05;40.78;100562.47;4993113;28;776;-61
2021/10/06 10:17:13;;;;;;;;;;;;;;;22.42;39.74;100561.38;4993091;28;955;-61
2021/10/06 10:19:42;;;;;;;;;;;;;;;22.76;39.07;100555.91;5010637;28;1415;-61
2021/10/06 10:22:09;;;;;;;;;;;;;;;22.76;38.51;100550.28;5012076;28;930;-61
2021/10/06 10:24:45;;;;;;;;;;;;;;;22.71;39.03;100556.53;5011966;28;1914;-61
2021/10/06 10:27:12;;;;;;;;;;;;;;;22.70;38.60;100552.91;5012180;28;827;-61
2021/10/06 10:30:03;;;;;;;;;;;;;;;22.57;38.75;100549.47;5012188;28;882;-61
2021/10/06 10:32:50;;;;;;;;;;;;;;;22.15;38.55;100542.34;5012025;28;827;-62
2021/10/06 10:35:20;;;;;;;;;;;;;;;22.05;38.41;100535.09;5011836;28;1008;-61
2021/10/06 10:40:35;;;;;;;;;;;;;;;21.86;37.54;100534.25;5011825;28;779;-61
2021/10/06 10:43:03;;;;;;;;;;;;;;;22.40;36.97;100530.06;5011687;28;1886;-61
2021/10/06 10:45:43;;;;;;;;;;;;;;;22.98;36.17;100536.81;5011792;28;851;-61
2021/10/06 10:48:11;;;;;;;;;;;;;;;23.73;34.90;100543.88;5011775;28;934;-61
2021/10/06 10:51:01;;;;;;;;;;;;;;;22.84;37.54;100554.34;5011762;28;815;-61
2021/10/06 10:53:55;;;;;;;;;;;;;;;21.73;40.71;100562.50;5004203;28;1153;-62
2021/10/06 10:56:27;;;;;;;;;;;;;;;20.66;43.31;100563.59;5011713;28;806;-59
2021/10/06 10:59:12;;;;;;;;;;;;;;;20.01;44.93;100562.09;5011805;28;791;-61
2021/10/06 11:01:39;;;;;;;;;;;;;;;18.56;47.20;100575.75;5013134;28;810;-61
2021/10/06 11:04:14;;;;;;;;;;;;;;;17.76;48.31;100573.22;5016450;28;1953;-61
2021/10/06 11:06:42;;;;;;;;;;;;;;;17.15;49.83;100571.69;5015699;28;803;-61
2021/10/06 11:09:27;;;;;;;;;;;;;;;16.84;50.40;100576.69;5015850;28;842;-61
2021/10/06 11:11:54;;;;;;;;;;;;;;;16.33;52.30;100594.25;5015507;28;796;-61
2021/10/06 11:14:21;;;;;;;;;;;;;;;15.35;55.63;100584.06;5015535;28;834;-61
2021/10/06 11:17:09;;;;;;;;;;;;;;;14.76;57.29;100596.19;5015700;28;927;-61
2021/10/06 11:19:46;;;;;;;;;;;;;;;14.77;56.95;100595.03;5015251;28;1238;-61
2021/10/06 11:22:22;;;;;;;;;;;;;;;15.08;55.60;100587.53;5015432;28;873;-61
2021/10/06 11:25:00;;;;;;;;;;;;;;;15.58;53.66;100586.94;5015196;28;1975;-61
2021/10/06 11:27:28;;;;;;;;;;;;;;;16.17;52.13;100587.72;5015337;28;877;-61
2021/10/06 11:29:56;;;;;;;;;;;;;;;16.62;50.04;100587.41;5015212;28;790;-61
2021/10/06 11:32:23;;;;;;;;;;;;;;;16.78;49.64;100576.34;4997642;28;1188;-62
2021/10/06 11:34:54;;;;;;;;;;;;;;;17.07;49.46;100582.22;5015124;28;795;-61
2021/10/06 11:37:22;;;;;;;;;;;;;;;17.33;49.02;100571.34;4997475;28;1414;-62
2021/10/06 11:39:50;;;;;;;;;;;;;;;17.40;48.37;100571.19;5015362;28;858;-61
2021/10/06 11:42:17;;;;;;;;;;;;;;;17.44;48.37;100568.34;5015097;28;850;-61
2021/10/06 11:44:45;;;;;;;;;;;;;;;17.60;48.11;100565.56;5015069;28;1947;-61
2021/10/06 11:47:12;;;;;;;;;;;;;;;17.73;47.98;100554.50;5014959;28;791;-61
2021/10/06 11:49:40;;;;;;;;;;;;;;;17.78;47.42;100550.44;5014910;28;795;-61
2021/10/06 11:52:08;;;;;;;;;;;;;;;17.68;47.82;100549.44;4997157;28;2295;-61
2021/10/06 11:54:35;;;;;;;;;;;;;;;17.53;48.20;100555.34;5014874;28;815;-61
2021/10/06 11:57:04;;;;;;;;;;;;;;;17.38;49.03;100562.47;5014699;28;878;-61
2021/10/06 11:59:31;;;;;;;;;;;;;;;17.22;49.78;100554.00;5014813;28;862;-61
2021/10/06 12:01:59;;;;;;;;;;;;;;;17.20;50.14;100548.88;5014661;28;788;-61
2021/10/06 12:04:27;;;;;;;;;;;;;;;17.35;49.79;100540.97;4996969;28;1949;-61
2021/10/06 12:07:01;;;;;;;;;;;;;;;17.52;49.45;100553.78;5014572;28;791;-61
2021/10/06 12:09:33;;;;;;;;;;;;;;;17.84;48.99;100554.31;4996867;28;839;-61
2021/10/06 12:11:59;;;;;;;;;;;;;;;18.00;48.88;100540.34;5014824;28;894;-61
2021/10/06 12:14:33;;;;;;;;;;;;;;;18.16;48.56;100543.16;5013414;28;870;-61
2021/10/06 12:17:11;;;;;;;;;;;;;;;18.15;48.71;100540.78;5014544;28;909;-61
2021/10/06 12:19:38;;;;;;;;;;;;;;;18.33;48.66;100537.56;5014121;28;1265;-61
2021/10/06 12:22:06;;;;;;;;;;;;;;;18.35;48.63;100541.50;5014263;28;828;-61
2021/10/06 12:24:32;;;;;;;;;;;;;;;18.29;48.73;100546.03;5014137;28;1903;-61
2021/10/06 12:26:59;;;;;;;;;;;;;;;18.18;49.16;100534.34;5014157;28;795;-61
2021/10/06 12:29:28;;;;;;;;;;;;;;;18.19;49.22;100535.91;5014151;28;819;-61
2021/10/06 12:32:16;;;;;;;;;;;;;;;18.43;49.18;100539.28;5014041;28;819;-61
2021/10/06 12:34:44;;;;;;;;;;;;;;;18.51;49.11;100537.09;5013834;28;1544;-61
2021/10/06 12:37:12;;;;;;;;;;;;;;;18.41;49.84;100538.94;5013980;28;827;-61
2021/10/06 12:39:39;;;;;;;;;;;;;;;18.52;49.68;100533.88;5014251;28;871;-61
2021/10/06 12:42:08;;;;;;;;;;;;;;;18.56;49.70;100540.16;5014499;28;839;-61
2021/10/06 12:44:45;;;;;;;;;;;;;;;18.61;50.26;100532.47;5013959;28;1941;-61
2021/10/06 12:47:13;;;;;;;;;;;;;;;18.28;50.83;100541.66;5013878;28;862;-61
2021/10/06 12:49:45;;;;;;;;;;;;;;;18.16;51.02;100548.75;4996132;28;1201;-61
2021/10/06 12:52:18;;;;;;;;;;;;;;;18.10;50.75;100550.50;5013781;28;815;-61
2021/10/06 12:54:45;;;;;;;;;;;;;;;18.03;50.68;100553.47;5013690;28;904;-61
2021/10/06 12:57:11;;;;;;;;;;;;;;;17.91;50.17;100554.94;5013666;28;877;-61
2021/10/06 12:59:40;;;;;;;;;;;;;;;17.93;50.15;100552.50;5013710;28;791;-61
2021/10/06 13:02:07;;;;;;;;;;;;;;;17.96;49.99;100542.44;5013523;28;876;-61
2021/10/06 13:04:36;;;;;;;;;;;;;;;18.03;49.66;100545.09;5013433;28;1882;-61
2021/10/06 13:07:04;;;;;;;;;;;;;;;18.08;49.73;100544.53;5013424;28;826;-61
2021/10/06 13:09:30;;;;;;;;;;;;;;;18.15;49.50;100538.00;5013293;28;866;-61
2021/10/06 13:11:59;;;;;;;;;;;;;;;18.29;49.37;100542.47;5013590;28;783;-61
2021/10/06 13:14:26;;;;;;;;;;;;;;;18.37;49.48;100538.25;4995694;28;815;-61
2021/10/06 13:16:53;;;;;;;;;;;;;;;18.44;48.92;100537.28;5013421;28;956;-61
2021/10/06 13:19:21;;;;;;;;;;;;;;;18.33;49.00;100529.16;5013487;28;1162;-61
2021/10/06 13:21:52;;;;;;;;;;;;;;;18.33;49.04;100521.56;5013165;28;803;-61
2021/10/06 13:24:19;;;;;;;;;;;;;;;18.34;49.18;100525.13;5013050;28;1968;-61
2021/10/06 13:26:47;;;;;;;;;;;;;;;18.05;49.37;100531.44;5013024;28;819;-61
2021/10/06 13:29:15;;;;;;;;;;;;;;;17.78;49.86;100528.84;5013093;28;878;-61
2021/10/06 13:31:41;;;;;;;;;;;;;;;17.61;50.20;100533.63;5013028;28;827;-61
2021/10/06 13:34:08;;;;;;;;;;;;;;;17.45;50.41;100525.97;5012895;28;807;-61
2021/10/06 13:36:36;;;;;;;;;;;;;;;17.23;50.79;100525.66;5012884;28;826;-61
2021/10/06 13:39:03;;;;;;;;;;;;;;;17.19;50.98;100518.56;5012778;28;811;-61
2021/10/06 13:41:28;;;;;;;;;;;;;;;17.24;50.95;100515.25;5013068;28;815;-61
2021/10/06 13:43:55;;;;;;;;;;;;;;;17.11;50.83;100518.72;5012706;28;1945;-61